createdAt,value
2019-04-26T00:01:52.180Z,13.85
2019-04-26T00:04:22.177Z,14.83
2019-04-26T00:06:51.666Z,14.28
2019-04-26T00:09:29.057Z,14.30
2019-04-26T00:12:29.892Z,14.98
2019-04-26T00:15:19.182Z,14.80
2019-04-26T00:17:56.232Z,15.27
2019-04-26T00:20:25.788Z,15.85
2019-04-26T00:22:55.265Z,15.13
2019-04-26T00:25:24.704Z,16.05
2019-04-26T00:27:54.368Z,14.95
2019-04-26T00:30:23.824Z,15.60
2019-04-26T00:32:53.312Z,15.70
2019-04-26T00:35:23.118Z,15.50
2019-04-26T00:37:52.557Z,15.55
2019-04-26T00:40:22.465Z,15.73
2019-04-26T00:42:53.586Z,15.80
2019-04-26T00:45:23.956Z,14.85
2019-04-26T00:47:54.428Z,16.02
2019-04-26T00:50:23.876Z,15.93
2019-04-26T00:52:53.924Z,16.82
2019-04-26T00:55:23.918Z,15.75
2019-04-26T00:57:53.859Z,16.32
2019-04-26T01:00:24.187Z,15.68
2019-04-26T01:02:56.178Z,16.27
2019-04-26T01:05:26.248Z,16.32
2019-04-26T01:07:57.356Z,16.67
2019-04-26T01:10:26.780Z,16.30
2019-04-26T01:12:56.241Z,16.07
2019-04-26T01:15:26.633Z,15.70
2019-04-26T01:17:56.396Z,15.50
2019-04-26T01:20:28.484Z,16.55
2019-04-26T01:23:00.884Z,16.60
2019-04-26T01:25:39.970Z,16.37
2019-04-26T01:28:13.656Z,16.80
2019-04-26T01:30:44.922Z,17.32
2019-04-26T01:33:15.130Z,16.50
2019-04-26T01:35:44.776Z,16.70
2019-04-26T01:38:16.266Z,16.60
2019-04-26T01:40:49.007Z,16.15
2019-04-26T01:43:53.322Z,16.32
2019-04-26T01:46:31.031Z,17.05
2019-04-26T01:49:04.550Z,16.90
2019-04-26T01:51:39.177Z,17.42
2019-04-26T01:54:11.757Z,17.62
2019-04-26T01:56:41.713Z,18.62
2019-04-26T01:59:13.907Z,17.92
2019-04-26T02:01:56.121Z,18.42
2019-04-26T02:04:28.553Z,18.27
2019-04-26T02:06:58.114Z,18.50
2019-04-26T02:09:28.410Z,19.40
2019-04-26T02:11:57.835Z,19.48
2019-04-26T02:14:28.965Z,19.00
2019-04-26T02:16:59.423Z,20.40
2019-04-26T02:19:29.564Z,19.15
2019-04-26T02:22:07.861Z,19.30
2019-04-26T02:24:40.162Z,18.35
2019-04-26T02:27:35.005Z,18.10
2019-04-26T02:30:09.000Z,18.12
2019-04-26T02:32:39.950Z,17.70
2019-04-26T02:35:09.991Z,18.73
2019-04-26T02:37:39.598Z,18.17
2019-04-26T02:40:14.425Z,18.57
2019-04-26T02:42:45.448Z,17.60
2019-04-26T02:46:09.239Z,17.82
2019-04-26T02:49:35.093Z,18.00
2019-04-26T02:52:25.315Z,19.30
2019-04-26T02:55:03.641Z,19.48
2019-04-26T02:57:40.271Z,18.62
2019-04-26T03:00:13.358Z,18.27
2019-04-26T03:02:44.676Z,18.80
2019-04-26T03:05:35.666Z,19.02
2019-04-26T03:08:15.498Z,20.05
2019-04-26T03:10:59.069Z,19.10
2019-04-26T03:13:54.773Z,19.00
2019-04-26T03:16:45.462Z,21.05
2019-04-26T03:19:47.168Z,20.30
2019-04-26T03:22:31.938Z,19.75
2019-04-26T03:25:25.587Z,20.30
2019-04-26T03:28:24.749Z,20.40
2019-04-26T03:31:03.163Z,21.23
2019-04-26T03:34:34.441Z,21.80
2019-04-26T03:37:21.829Z,20.52
2019-04-26T03:40:05.542Z,21.33
2019-04-26T03:43:07.639Z,19.67
2019-04-26T03:46:05.453Z,19.03
2019-04-26T03:48:53.870Z,19.92
2019-04-26T03:51:48.383Z,21.12
2019-04-26T03:54:22.754Z,21.85
2019-04-26T03:57:13.468Z,23.23
2019-04-26T04:00:26.057Z,22.07
2019-04-26T04:03:27.561Z,22.73
2019-04-26T04:05:58.706Z,23.25
2019-04-26T04:08:51.374Z,23.98
2019-04-26T04:11:24.695Z,22.75
2019-04-26T04:14:15.390Z,23.52
2019-04-26T04:17:22.322Z,23.80
2019-04-26T04:20:34.184Z,24.15
2019-04-26T04:23:16.738Z,24.47
2019-04-26T04:25:49.203Z,24.65
2019-04-26T04:29:18.553Z,25.10
2019-04-26T04:31:53.437Z,27.50
2019-04-26T04:34:35.784Z,27.95
2019-04-26T04:37:08.257Z,30.25
2019-04-26T04:40:15.257Z,28.95
2019-04-26T04:43:03.092Z,25.75
2019-04-26T04:46:30.187Z,23.92
2019-04-26T04:49:29.069Z,21.07
2019-04-26T04:52:16.694Z,19.95
2019-04-26T04:55:06.420Z,20.20
2019-04-26T04:57:57.971Z,19.40
2019-04-26T05:01:00.436Z,17.50
2019-04-26T05:03:48.904Z,18.45
2019-04-26T05:06:43.674Z,18.35
2019-04-26T05:09:23.089Z,17.02
2019-04-26T05:12:21.342Z,18.32
2019-04-26T05:15:20.618Z,16.67
2019-04-26T05:18:09.787Z,17.55
2019-04-26T05:21:11.039Z,16.73
2019-04-26T05:24:17.524Z,15.43
2019-04-26T05:27:37.098Z,15.08
2019-04-26T05:30:51.997Z,14.18
2019-04-26T05:33:40.566Z,14.15
2019-04-26T05:37:16.658Z,14.43
2019-04-26T05:40:08.520Z,13.72
2019-04-26T05:43:31.277Z,14.30
2019-04-26T05:46:45.896Z,13.87
2019-04-26T05:50:02.916Z,13.30
2019-04-26T05:53:11.674Z,12.55
2019-04-26T05:56:09.496Z,12.15
2019-04-26T05:59:09.258Z,12.78
2019-04-26T06:02:20.363Z,11.53
2019-04-26T06:05:42.690Z,11.97
2019-04-26T06:09:19.258Z,11.78
2019-04-26T06:12:00.937Z,11.57
2019-04-26T06:15:18.108Z,11.40
2019-04-26T06:18:25.998Z,11.57
2019-04-26T06:21:18.967Z,11.57
2019-04-26T06:24:06.916Z,11.15
2019-04-26T06:27:14.311Z,11.30
2019-04-26T06:30:20.231Z,11.30
2019-04-26T06:33:06.927Z,11.43
2019-04-26T06:35:40.982Z,11.12
2019-04-26T06:39:18.878Z,10.65
2019-04-26T06:42:20.301Z,11.50
2019-04-26T06:45:45.512Z,10.78
2019-04-26T06:48:38.211Z,9.78
2019-04-26T06:51:24.238Z,10.75
2019-04-26T06:54:08.325Z,9.88
2019-04-26T06:57:27.113Z,10.32
2019-04-26T07:00:21.436Z,10.10
2019-04-26T07:03:32.610Z,10.25
2019-04-26T07:06:06.528Z,9.95
2019-04-26T07:08:57.577Z,10.38
2019-04-26T07:12:44.697Z,9.63
2019-04-26T07:15:46.604Z,10.15
2019-04-26T07:18:30.629Z,9.80
2019-04-26T07:21:30.077Z,8.33
2019-04-26T07:24:50.795Z,8.55
2019-04-26T07:27:47.367Z,8.30
2019-04-26T07:30:41.125Z,8.75
2019-04-26T07:34:09.493Z,7.85
2019-04-26T07:37:20.845Z,8.33
2019-04-26T07:40:35.772Z,7.72
2019-04-26T07:43:45.399Z,8.75
2019-04-26T07:46:52.251Z,8.73
2019-04-26T07:50:09.436Z,8.50
2019-04-26T07:53:25.420Z,8.33
2019-04-26T07:56:27.281Z,7.80
2019-04-26T08:00:06.665Z,7.67
2019-04-26T08:03:02.175Z,8.03
2019-04-26T08:05:59.053Z,7.10
2019-04-26T08:08:34.303Z,7.03
2019-04-26T08:11:13.339Z,7.03
2019-04-26T08:14:04.632Z,7.55
2019-04-26T08:16:47.535Z,7.37
2019-04-26T08:19:21.826Z,7.65
2019-04-26T09:18:57.273Z,6.37
2019-04-26T09:21:51.771Z,6.65
2019-04-26T09:24:35.883Z,6.10
2019-04-26T09:27:24.478Z,6.08
2019-04-26T10:24:29.966Z,4.97
2019-04-26T10:27:03.263Z,4.65
2019-04-26T10:29:30.497Z,4.80
2019-04-26T10:32:00.037Z,4.67
2019-04-26T10:34:29.687Z,5.22
2019-04-26T10:37:01.508Z,5.10
2019-04-26T10:39:32.482Z,4.25
2019-04-26T10:42:01.401Z,3.77
2019-04-26T10:44:30.884Z,4.17
2019-04-26T10:47:04.343Z,3.77
2019-04-26T10:49:43.553Z,3.27
2019-04-26T10:52:19.622Z,3.45
2019-04-26T10:54:55.260Z,3.63
2019-04-26T10:57:33.729Z,2.93
2019-04-26T11:00:06.169Z,3.87
2019-04-26T11:02:35.879Z,3.77
2019-04-26T11:05:06.126Z,4.75
2019-04-26T11:07:35.729Z,4.37
2019-04-26T11:10:06.797Z,4.10
2019-04-26T11:12:39.607Z,4.70
2019-04-26T11:15:08.838Z,5.00
2019-04-26T11:17:38.278Z,4.33
2019-04-26T11:20:10.369Z,16.65
2019-04-26T11:22:39.449Z,12.65
2019-04-26T11:25:09.090Z,4.40
2019-04-26T11:27:40.215Z,5.28
2019-04-26T11:30:15.774Z,7.43
2019-04-26T11:32:42.588Z,5.80
2019-04-26T11:35:12.239Z,4.55
2019-04-26T11:37:46.345Z,4.45
2019-04-26T11:40:15.993Z,3.87
2019-04-26T11:42:45.950Z,3.72
2019-04-26T11:45:16.985Z,3.98
2019-04-26T11:47:56.297Z,4.17
2019-04-26T11:50:21.377Z,4.25
2019-04-26T11:52:50.902Z,3.90
2019-04-26T11:55:20.385Z,3.62
2019-04-26T11:57:49.940Z,3.77
2019-04-26T12:00:33.483Z,3.85
2019-04-26T12:03:04.828Z,3.27
2019-04-26T12:08:27.652Z,2.65
2019-04-26T12:10:58.048Z,3.20
2019-04-26T12:13:28.642Z,3.08
2019-04-26T12:15:59.643Z,3.33
2019-04-26T12:18:29.204Z,3.62
2019-04-26T12:21:01.027Z,3.90
2019-04-26T12:23:30.254Z,3.45
2019-04-26T12:25:59.707Z,3.30
2019-04-26T12:28:29.346Z,3.33
2019-04-26T12:31:00.235Z,4.72
2019-04-26T12:33:29.992Z,3.40
2019-04-26T12:35:59.467Z,8.15
2019-04-26T12:38:30.090Z,4.72
2019-04-26T12:41:01.157Z,3.60
2019-04-26T12:43:30.877Z,2.92
2019-04-26T12:46:27.175Z,3.02
2019-04-26T12:48:56.589Z,3.58
2019-04-26T12:51:26.041Z,2.90
2019-04-26T12:53:55.751Z,2.55
2019-04-26T12:56:26.709Z,2.87
2019-04-26T12:58:56.324Z,3.52
2019-04-26T13:01:26.043Z,4.00
2019-04-26T13:04:08.051Z,3.77
2019-04-26T13:06:46.342Z,3.40
2019-04-26T13:09:21.872Z,3.42
2019-04-26T13:12:11.125Z,3.15
2019-04-26T13:14:59.553Z,3.45
2019-04-26T13:17:58.443Z,3.08
2019-04-26T13:20:28.843Z,3.83
2019-04-26T13:22:59.061Z,3.52
2019-04-26T13:25:40.024Z,3.52
2019-04-26T13:28:00.010Z,3.87
2019-04-26T13:30:33.040Z,3.95
2019-04-26T13:33:00.565Z,3.55
2019-04-26T13:35:30.022Z,3.92
2019-04-26T13:37:59.679Z,4.03
2019-04-26T13:40:30.537Z,4.10
2019-04-26T13:43:00.194Z,3.98
2019-04-26T13:45:41.007Z,3.72
2019-04-26T13:48:47.849Z,3.80
2019-04-26T13:51:18.840Z,3.30
2019-04-26T13:53:48.647Z,3.58
2019-04-26T13:56:18.095Z,3.40
2019-04-26T14:12:46.239Z,4.15
2019-04-26T14:15:16.388Z,4.42
2019-04-26T14:17:45.869Z,3.95
2019-04-26T14:20:15.490Z,4.37
2019-04-26T14:22:56.639Z,4.00
2019-04-26T14:25:30.679Z,4.35
2019-04-26T14:28:00.281Z,3.98
2019-04-26T14:30:29.768Z,3.72
2019-04-26T14:32:59.350Z,4.12
2019-04-26T14:35:28.914Z,4.90
2019-04-26T14:37:58.406Z,3.65
2019-04-26T14:40:28.216Z,4.70
2019-04-26T14:43:06.650Z,4.10
2019-04-26T14:45:28.834Z,4.40
2019-04-26T14:48:00.128Z,4.37
2019-04-26T14:50:33.916Z,4.15
2019-04-26T14:53:03.643Z,4.22
2019-04-26T14:55:33.296Z,4.62
2019-04-26T14:58:02.758Z,5.30
2019-04-26T15:00:34.743Z,4.40
2019-04-26T15:03:29.220Z,4.17
2019-04-26T15:06:26.677Z,4.53
2019-04-26T15:08:56.534Z,4.55
2019-04-26T15:11:27.066Z,4.15
2019-04-26T15:13:56.631Z,4.85
2019-04-26T15:16:26.352Z,4.70
2019-04-26T15:18:56.035Z,4.35
2019-04-26T15:21:27.364Z,4.70
2019-04-26T15:23:59.304Z,4.25
2019-04-26T15:26:29.939Z,4.12
2019-04-26T15:28:59.531Z,5.28
2019-04-26T15:31:29.013Z,4.65
2019-04-26T15:33:58.753Z,4.12
2019-04-26T15:36:28.311Z,4.75
2019-04-26T15:38:58.871Z,4.35
2019-04-26T15:41:43.010Z,4.75
2019-04-26T15:44:24.789Z,3.98
2019-04-26T15:47:19.562Z,4.37
2019-04-26T15:49:53.107Z,4.67
2019-04-26T15:52:22.778Z,5.53
2019-04-26T15:54:58.125Z,5.50
2019-04-26T15:57:24.475Z,4.83
2019-04-26T15:59:58.114Z,4.97
2019-04-26T16:02:26.336Z,4.25
2019-04-26T16:04:56.059Z,4.87
2019-04-26T16:07:28.783Z,4.45
2019-04-26T16:09:57.591Z,4.55
2019-04-26T16:12:27.458Z,4.30
2019-04-26T16:14:58.665Z,4.97
2019-04-26T16:17:28.129Z,5.53
2019-04-26T16:20:00.158Z,5.22
2019-04-26T16:22:31.684Z,4.78
2019-04-26T16:25:05.217Z,5.00
2019-04-26T16:27:34.554Z,4.83
2019-04-26T16:30:37.474Z,4.67
2019-04-26T16:33:20.371Z,5.28
2019-04-26T16:35:52.859Z,5.05
2019-04-26T16:38:38.339Z,5.28
2019-04-26T16:41:07.895Z,5.58
2019-04-26T16:43:40.698Z,6.10
2019-04-26T16:48:40.281Z,5.85
2019-04-26T16:51:09.787Z,4.60
2019-04-26T16:53:58.815Z,5.08
2019-04-26T16:56:10.901Z,5.50
2019-04-26T16:58:44.923Z,4.78
2019-04-26T17:01:15.032Z,4.45
2019-04-26T17:03:47.971Z,4.03
2019-04-26T17:06:15.515Z,5.62
2019-04-26T17:08:51.551Z,4.87
2019-04-26T17:09:37.394Z,5.53
2019-04-26T17:11:16.947Z,5.78
2019-04-26T17:13:50.846Z,5.10
2019-04-26T17:16:17.858Z,5.03
2019-04-26T17:18:47.464Z,5.08
2019-04-26T17:21:22.284Z,5.47
2019-04-26T17:24:15.134Z,5.67
2019-04-26T17:27:00.082Z,6.40
2019-04-26T17:29:29.612Z,6.53
2019-04-26T17:31:59.559Z,8.55
2019-04-26T17:34:30.277Z,7.67
2019-04-26T17:37:00.171Z,6.47
2019-04-26T17:39:30.441Z,8.35
2019-04-26T17:42:01.228Z,6.45
2019-04-26T17:44:32.648Z,6.58
2019-04-26T17:47:02.235Z,8.75
2019-04-26T17:49:34.457Z,8.63
2019-04-26T17:52:03.081Z,9.88
2019-04-26T17:54:46.255Z,8.28
2019-04-26T17:57:08.882Z,9.85
2019-04-26T17:59:36.862Z,7.42
2019-04-26T18:02:18.346Z,8.75
2019-04-26T18:04:40.848Z,11.45
2019-04-26T18:07:34.616Z,10.65
2019-04-26T18:09:45.927Z,9.98
2019-04-26T18:12:14.680Z,10.32
2019-04-26T18:14:44.503Z,9.85
2019-04-26T18:17:26.165Z,14.28
2019-04-26T18:20:13.067Z,37.83
2019-04-26T18:23:05.529Z,12.07
2019-04-26T18:25:36.104Z,8.38
2019-04-26T18:28:08.676Z,10.23
2019-04-26T18:30:40.307Z,8.70
2019-04-26T18:33:08.747Z,10.65
2019-04-26T18:35:38.605Z,10.00
2019-04-26T18:38:08.500Z,8.78
2019-04-26T18:40:58.981Z,9.47
2019-04-26T18:43:12.545Z,8.58
2019-04-26T18:45:42.820Z,8.65
2019-04-26T18:48:13.899Z,8.63
2019-04-26T18:50:45.797Z,9.47
2019-04-26T18:53:41.036Z,11.28
2019-04-26T18:56:12.537Z,11.38
2019-04-26T18:58:43.207Z,17.07
2019-04-26T19:01:14.496Z,13.17
2019-04-26T19:03:44.004Z,10.07
2019-04-26T19:06:27.036Z,8.97
2019-04-26T19:08:49.794Z,8.90
2019-04-26T19:11:15.908Z,8.53
2019-04-26T19:14:06.425Z,9.20
2019-04-26T19:16:59.219Z,11.10
2019-04-26T19:19:38.991Z,10.70
2019-04-26T19:22:09.408Z,9.93
2019-04-26T19:24:41.920Z,11.93
2019-04-26T19:27:12.561Z,15.72
2019-04-26T19:29:43.335Z,11.47
2019-04-26T19:32:12.983Z,9.93
2019-04-26T19:34:42.410Z,9.50
2019-04-26T19:37:13.043Z,9.13
2019-04-26T19:39:42.786Z,10.40
2019-04-26T19:42:12.622Z,9.43
2019-04-26T19:44:42.158Z,10.17
2019-04-26T19:47:22.683Z,14.33
2019-04-26T19:50:03.168Z,13.93
2019-04-26T19:52:44.861Z,12.60
2019-04-26T19:55:31.886Z,10.80
2019-04-26T19:58:09.664Z,10.43
2019-04-26T20:00:43.419Z,10.90
2019-04-26T20:03:13.457Z,10.20
2019-04-26T20:05:44.147Z,10.30
2019-04-26T20:08:14.056Z,10.23
2019-04-26T20:10:45.834Z,10.97
2019-04-26T20:13:16.292Z,11.00
2019-04-26T20:15:46.382Z,10.17
2019-04-26T20:18:17.469Z,11.00
2019-04-26T20:20:47.317Z,11.13
2019-04-26T20:23:19.547Z,12.33
2019-04-26T20:25:49.087Z,11.90
2019-04-26T20:28:18.671Z,11.93
2019-04-26T20:31:09.916Z,10.47
2019-04-26T20:33:42.426Z,10.07
2019-04-26T20:36:12.590Z,11.10
2019-04-26T20:38:45.723Z,10.47
2019-04-26T20:41:14.912Z,11.50
2019-04-26T20:43:48.664Z,11.90
2019-04-26T20:46:15.879Z,10.47
2019-04-26T20:48:45.460Z,11.50
2019-04-26T20:51:17.959Z,11.93
2019-04-26T20:53:46.150Z,12.37
2019-04-26T20:56:18.186Z,11.87
2019-04-26T20:58:47.383Z,12.27
2019-04-26T21:01:17.634Z,12.37
2019-04-26T21:03:47.367Z,12.57
2019-04-26T21:06:16.858Z,13.70
2019-04-26T21:08:46.399Z,11.63
2019-04-26T21:11:16.427Z,12.90
2019-04-26T21:13:46.468Z,11.33
2019-04-26T21:16:15.961Z,10.53
2019-04-26T21:18:45.778Z,10.80
2019-04-26T21:21:16.148Z,9.47
2019-04-26T21:23:48.432Z,10.20
2019-04-26T21:26:36.900Z,8.13
2019-04-26T21:29:28.587Z,8.50
2019-04-26T21:32:16.464Z,9.03
2019-04-26T21:34:50.533Z,7.73
2019-04-26T21:37:28.240Z,8.57
2019-04-26T21:40:03.936Z,8.87
2019-04-26T21:42:33.618Z,8.47
2019-04-26T21:45:03.544Z,8.30
2019-04-26T21:47:35.541Z,9.37
2019-04-26T21:50:06.231Z,8.50
2019-04-26T21:52:35.761Z,11.57
2019-04-26T21:55:06.578Z,10.83
2019-04-26T21:57:36.325Z,11.40
2019-04-26T22:00:15.863Z,40.07
2019-04-26T22:02:45.962Z,14.80
2019-04-26T22:05:16.045Z,14.67
2019-04-26T22:07:47.731Z,11.97
2019-04-26T22:10:24.484Z,13.13
2019-04-26T22:12:55.331Z,12.93
2019-04-26T22:15:43.803Z,13.60
2019-04-26T22:18:21.668Z,13.90
2019-04-26T22:21:12.836Z,15.03
2019-04-26T22:24:00.457Z,15.40
2019-04-26T22:26:30.057Z,15.23
2019-04-26T22:29:00.237Z,41.47
2019-04-26T22:31:30.170Z,42.83
2019-04-26T22:34:01.400Z,27.03
2019-04-26T22:36:33.658Z,21.27
2019-04-26T22:39:04.615Z,19.60
2019-04-26T22:41:34.042Z,15.10
2019-04-26T22:44:08.923Z,15.57
2019-04-26T22:47:15.439Z,16.67
2019-04-26T22:49:45.351Z,14.40
2019-04-26T22:52:16.355Z,13.33
2019-04-26T22:54:47.497Z,14.33
2019-04-26T22:57:18.239Z,13.53
2019-04-26T22:59:50.166Z,13.83
2019-04-26T23:02:25.839Z,13.63
2019-04-26T23:04:50.549Z,13.77
2019-04-26T23:07:23.327Z,13.80
2019-04-26T23:09:55.129Z,16.07
2019-04-26T23:12:47.890Z,15.93
2019-04-26T23:15:39.848Z,13.93
2019-04-26T23:18:46.569Z,12.20
2019-04-26T23:21:25.052Z,11.53
2019-04-26T23:23:54.740Z,10.80
2019-04-26T23:26:24.675Z,10.87
2019-04-26T23:28:54.128Z,11.23
2019-04-26T23:31:23.780Z,10.03
2019-04-26T23:33:53.897Z,10.00
2019-04-26T23:36:24.062Z,9.80
2019-04-26T23:38:53.787Z,10.93
2019-04-26T23:41:23.601Z,10.43
2019-04-26T23:43:56.834Z,10.53
2019-04-26T23:46:25.948Z,9.97
2019-04-26T23:48:55.598Z,10.77
2019-04-26T23:51:26.223Z,10.33
2019-04-26T23:53:57.804Z,10.77
2019-04-26T23:56:30.091Z,10.87
2019-04-26T23:58:59.512Z,10.10
